Time;durP1;ratioP1;P1;durP2;ratioP2;P2;SDS_P1;SDS_P2;PMS_P1;PMS_P2;Temp;Humidity;BMP_temperature;BMP_pressure;BME280_temperature;BME280_humidity;BME280_pressure;Samples;Min_cycle;Max_cycle;Signal;HPM_P1;HPM_P2
2023/03/06 00:02:09;;;;;;;44.75;40.72;;;;;;;2.04;100.00;100495.53;5053599;28;20057;-77
2023/03/06 00:04:36;;;;;;;41.65;37.88;;;;;;;2.20;100.00;100482.50;5053982;28;20111;-77
2023/03/06 00:07:02;;;;;;;37.38;33.97;;;;;;;2.42;100.00;100485.53;5053634;28;20106;-77
2023/03/06 00:09:29;;;;;;;37.85;34.22;;;;;;;2.58;100.00;100482.16;5053888;28;20053;-77
2023/03/06 00:11:56;;;;;;;39.85;36.28;;;;;;;2.21;100.00;100481.53;5053907;28;20048;-77
2023/03/06 00:14:24;;;;;;;52.88;48.63;;;;;;;2.31;100.00;100486.66;5053478;28;20048;-77
2023/03/06 00:16:54;;;;;;;42.17;38.50;;;;;;;2.21;100.00;100483.31;5053768;28;20477;-77
2023/03/06 00:19:20;;;;;;;36.13;32.72;;;;;;;2.15;100.00;100476.06;5053424;28;20103;-77
2023/03/06 00:21:47;;;;;;;36.70;33.15;;;;;;;2.26;100.00;100476.63;5053737;28;20048;-77
2023/03/06 00:24:14;;;;;;;35.40;32.00;;;;;;;2.23;100.00;100476.94;5053603;28;20053;-77
2023/03/06 00:26:41;;;;;;;38.72;34.90;;;;;;;2.34;100.00;100473.22;5053437;28;20052;-77
2023/03/06 00:29:08;;;;;;;37.90;34.15;;;;;;;2.48;100.00;100474.41;5053425;28;20425;-77
2023/03/06 00:31:36;;;;;;;43.70;39.83;;;;;;;2.32;100.00;100469.94;5053384;28;20049;-77
2023/03/06 00:34:03;;;;;;;40.35;36.92;;;;;;;2.47;100.00;100470.16;5053407;28;20045;-77
2023/03/06 00:36:29;;;;;;;43.33;39.90;;;;;;;2.51;100.00;100467.06;5053294;28;20057;-77
2023/03/06 00:38:56;;;;;;;35.13;31.95;;;;;;;2.65;100.00;100467.41;5053302;28;20049;-77
2023/03/06 00:41:23;;;;;;;43.63;40.35;;;;;;;2.57;100.00;100470.00;5053103;28;20045;-77
2023/03/06 00:43:50;;;;;;;41.90;38.30;;;;;;;2.61;100.00;100463.50;5052924;28;20049;-77
2023/03/06 00:46:17;;;;;;;42.40;39.25;;;;;;;2.49;100.00;100470.81;5052608;28;20053;-77
2023/03/06 00:48:45;;;;;;;37.75;34.42;;;;;;;2.23;100.00;100476.13;5052776;28;20576;-77
2023/03/06 00:51:12;;;;;;;44.08;40.40;;;;;;;2.33;100.00;100465.50;5052925;28;20110;-77
2023/03/06 00:53:38;;;;;;;41.78;38.30;;;;;;;2.21;100.00;100462.34;5053064;28;20118;-77
2023/03/06 00:56:07;;;;;;;53.38;49.67;;;;;;;2.03;100.00;100460.66;5053230;28;20399;-77
2023/03/06 00:58:36;;;;;;;58.33;54.20;;;;;;;2.25;100.00;100459.28;5052991;28;20052;-77
2023/03/06 01:01:02;;;;;;;48.85;45.08;;;;;;;2.08;100.00;100449.69;5052553;28;20445;-77
2023/03/06 01:03:29;;;;;;;40.13;36.78;;;;;;;2.31;100.00;100444.72;5052494;28;20494;-77
2023/03/06 01:05:58;;;;;;;40.75;37.65;;;;;;;2.31;100.00;100451.75;5052570;28;20098;-77
2023/03/06 01:08:24;;;;;;;44.53;40.90;;;;;;;2.31;100.00;100444.72;5052697;28;20119;-77
2023/03/06 01:10:51;;;;;;;46.83;43.50;;;;;;;2.22;100.00;100448.28;5052366;28;20049;-77
2023/03/06 01:13:18;;;;;;;45.67;42.08;;;;;;;2.26;100.00;100433.88;5052685;28;20052;-77
2023/03/06 01:15:44;;;;;;;43.03;39.55;;;;;;;2.29;100.00;100450.09;5052597;28;20114;-77
2023/03/06 01:18:11;;;;;;;42.70;39.80;;;;;;;2.38;100.00;100450.13;5052281;28;20473;-77
2023/03/06 01:20:38;;;;;;;42.92;39.63;;;;;;;2.37;100.00;100453.75;5052527;28;20041;-77
2023/03/06 01:23:06;;;;;;;39.90;36.67;;;;;;;2.24;100.00;100451.53;5052339;28;20118;-77
2023/03/06 01:25:33;;;;;;;41.90;38.58;;;;;;;2.35;100.00;100453.06;5052784;28;20110;-77
2023/03/06 01:27:59;;;;;;;45.20;41.55;;;;;;;2.24;100.00;100446.31;5052333;28;20048;-77
2023/03/06 01:30:27;;;;;;;47.88;44.60;;;;;;;2.15;100.00;100444.63;5052183;28;20490;-77
2023/03/06 01:32:54;;;;;;;34.72;31.80;;;;;;;2.00;100.00;100444.44;5052618;28;20407;-77
2023/03/06 01:35:20;;;;;;;35.58;32.38;;;;;;;1.99;100.00;100442.78;5052092;28;20045;-77
2023/03/06 01:37:47;;;;;;;34.80;31.70;;;;;;;2.04;100.00;100445.75;5052368;28;20053;-77
2023/03/06 01:40:15;;;;;;;36.70;33.85;;;;;;;1.87;100.00;100446.63;5052232;28;20052;-77
2023/03/06 01:42:42;;;;;;;41.03;38.13;;;;;;;1.96;100.00;100448.31;5052155;28;20057;-77
2023/03/06 01:45:48;;;;;;;41.55;37.90;;;;;;;1.97;100.00;100450.00;5052329;28;20103;-77
2023/03/06 01:48:15;;;;;;;36.67;33.53;;;;;;;1.93;100.00;100456.50;5051672;28;20053;-77
2023/03/06 01:50:42;;;;;;;38.67;35.58;;;;;;;1.91;100.00;100453.22;5052134;28;20048;-77
2023/03/06 01:53:09;;;;;;;34.13;31.42;;;;;;;1.90;100.00;100452.38;5051823;28;20507;-77
2023/03/06 01:55:37;;;;;;;35.83;32.72;;;;;;;2.02;100.00;100451.13;5052155;28;20491;-77
2023/03/06 01:58:08;;;;;;;40.83;37.95;;;;;;;1.96;100.00;100448.31;5052709;28;20480;-77
2023/03/06 02:00:35;;;;;;;36.90;33.72;;;;;;;1.93;100.00;100440.78;5056082;28;20048;-77
2023/03/06 02:03:06;;;;;;;36.97;33.88;;;;;;;1.88;100.00;100449.13;5055855;28;20056;-77
2023/03/06 02:05:33;;;;;;;34.08;31.58;;;;;;;1.91;100.00;100445.38;5056147;28;20395;-77
2023/03/06 02:08:02;;;;;;;39.42;36.58;;;;;;;1.80;100.00;100444.66;5056065;28;20057;-77
2023/03/06 02:10:29;;;;;;;38.78;35.90;;;;;;;1.78;100.00;100453.63;5055815;28;20049;-77
2023/03/06 02:12:57;;;;;;;43.25;39.97;;;;;;;1.86;100.00;100455.50;5055940;28;20044;-77
2023/03/06 02:15:26;;;;;;;39.30;36.20;;;;;;;1.82;100.00;100461.03;5056001;28;20053;-77
2023/03/06 02:17:53;;;;;;;37.25;34.38;;;;;;;1.92;100.00;100447.81;5055628;28;20059;-77
2023/03/06 02:20:26;;;;;;;32.70;30.17;;;;;;;1.89;100.00;100463.84;5055801;28;20052;-78
2023/03/06 02:23:00;;;;;;;35.25;32.35;;;;;;;1.90;100.00;100460.25;5055910;28;20045;-77
2023/03/06 02:25:34;;;;;;;38.90;35.95;;;;;;;1.86;100.00;100456.31;5055893;28;20049;-77
2023/03/06 02:28:01;;;;;;;38.88;35.95;;;;;;;1.78;100.00;100456.25;5055366;28;20572;-77
2023/03/06 02:30:29;;;;;;;41.05;38.00;;;;;;;1.74;100.00;100453.13;5055516;28;20495;-77
2023/03/06 02:32:56;;;;;;;36.28;33.25;;;;;;;1.93;100.00;100449.44;5055587;28;20053;-77
2023/03/06 02:35:25;;;;;;;33.60;31.42;;;;;;;2.24;100.00;100447.16;5055316;28;20568;-77
2023/03/06 02:37:53;;;;;;;37.75;35.10;;;;;;;1.97;100.00;100452.59;5055498;28;20115;-77
2023/03/06 02:40:22;;;;;;;39.85;37.15;;;;;;;2.03;100.00;100451.97;5055467;28;20504;-77
2023/03/06 02:42:55;;;;;;;33.42;30.58;;;;;;;1.90;100.00;100454.19;5055298;28;20049;-77
2023/03/06 02:45:24;;;;;;;;;;;;;;;1.94;100.00;100450.31;5055982;28;20143;-77
2023/03/06 02:47:50;;;;;;;29.90;27.48;;;;;;;2.01;100.00;100454.75;5055446;28;19936;-77
2023/03/06 02:50:17;;;;;;;30.13;27.50;;;;;;;1.95;100.00;100447.50;5055313;28;20498;-77
2023/03/06 02:52:44;;;;;;;38.03;34.95;;;;;;;1.95;100.00;100449.31;5055286;28;20052;-77
2023/03/06 02:55:11;;;;;;;35.78;33.40;;;;;;;1.82;100.00;100463.66;5055330;28;20048;-77
2023/03/06 02:57:38;;;;;;;35.08;31.83;;;;;;;2.03;100.00;100451.97;5054967;28;20045;-77
2023/03/06 03:06:16;;;;;;;35.22;32.60;;;;;;;2.01;100.00;100453.91;4800126;22;20053;-76
2023/03/06 03:08:42;;;;;;;37.92;34.97;;;;;;;2.26;100.00;100444.34;5074313;28;20052;-76
2023/03/06 03:11:09;;;;;;;36.42;33.92;;;;;;;1.88;100.00;100464.03;5074651;28;20044;-76
2023/03/06 03:13:36;;;;;;;38.80;35.90;;;;;;;1.90;100.00;100459.44;5074870;28;20096;-76
2023/03/06 03:16:05;;;;;;;40.03;36.83;;;;;;;1.92;100.00;100457.47;5074861;28;20592;-76
2023/03/06 03:18:32;;;;;;;32.58;30.00;;;;;;;1.89;100.00;100463.03;5074849;28;20061;-76
2023/03/06 03:20:59;;;;;;;31.38;28.67;;;;;;;1.87;100.00;100462.34;5074921;28;20045;-76
2023/03/06 03:23:27;;;;;;;30.52;28.35;;;;;;;1.84;100.00;100461.69;5074649;28;20105;-76
2023/03/06 03:25:54;;;;;;;35.67;32.88;;;;;;;1.75;100.00;100467.84;5074752;28;20048;-76
2023/03/06 03:28:20;;;;;;;38.58;35.63;;;;;;;1.81;100.00;100475.09;5074408;28;20052;-76
2023/03/06 03:30:47;;;;;;;32.45;29.88;;;;;;;1.76;100.00;100471.31;5074699;28;20048;-76
2023/03/06 03:33:14;;;;;;;32.00;29.40;;;;;;;1.75;100.00;100472.25;5074860;28;20052;-76
2023/03/06 03:35:41;;;;;;;27.58;25.17;;;;;;;1.66;100.00;100467.97;5074247;28;20083;-76
2023/03/06 03:38:07;;;;;;;31.80;29.50;;;;;;;1.83;100.00;100469.72;5074354;28;20053;-76
2023/03/06 03:40:35;;;;;;;26.58;24.38;;;;;;;1.77;100.00;100473.75;5074298;28;20052;-76
2023/03/06 03:43:02;;;;;;;31.30;28.88;;;;;;;1.77;100.00;100479.00;5074454;28;20052;-76
2023/03/06 03:45:29;;;;;;;31.35;28.80;;;;;;;1.67;100.00;100478.28;5074241;28;20513;-76
2023/03/06 03:47:55;;;;;;;29.70;27.10;;;;;;;1.59;100.00;100481.66;5074274;28;20114;-76
2023/03/06 03:50:22;;;;;;;33.15;30.65;;;;;;;1.71;100.00;100479.63;5074169;28;20057;-76
2023/03/06 03:52:49;;;;;;;33.78;31.08;;;;;;;1.55;100.00;100475.09;5073959;28;20056;-76
2023/03/06 03:55:16;;;;;;;34.75;32.17;;;;;;;1.64;100.00;100475.16;5073770;28;20048;-76
2023/03/06 03:57:44;;;;;;;30.50;28.10;;;;;;;1.59;100.00;100471.19;5073865;28;20106;-76
2023/03/06 04:00:15;;;;;;;30.95;28.55;;;;;;;1.54;100.00;100470.84;5073889;28;20106;-76
2023/03/06 04:02:42;;;;;;;31.02;28.38;;;;;;;1.57;100.00;100473.16;5073816;28;20101;-76
2023/03/06 04:05:09;;;;;;;36.30;33.75;;;;;;;1.50;100.00;100471.28;5073644;28;20117;-76
2023/03/06 04:07:36;;;;;;;34.42;31.70;;;;;;;1.53;100.00;100473.59;5073527;28;20049;-76
2023/03/06 04:10:03;;;;;;;31.90;29.17;;;;;;;1.49;100.00;100473.09;5073847;28;20052;-76
2023/03/06 04:12:30;;;;;;;37.15;33.67;;;;;;;1.30;100.00;100475.88;5073875;28;20106;-76
2023/03/06 04:14:58;;;;;;;38.15;35.20;;;;;;;1.31;100.00;100480.97;5073675;28;20574;-76
2023/03/06 04:17:24;;;;;;;35.20;32.33;;;;;;;1.27;100.00;100486.66;5073701;28;20048;-76
2023/03/06 04:19:51;;;;;;;37.25;34.22;;;;;;;1.28;100.00;100486.50;5073602;28;20049;-76
2023/03/06 04:22:18;;;;;;;36.88;34.35;;;;;;;1.46;100.00;100483.88;5072798;28;20044;-76
2023/03/06 04:24:47;;;;;;;41.70;38.70;;;;;;;1.36;100.00;100480.50;5073268;28;20098;-76
2023/03/06 04:27:14;;;;;;;38.33;35.53;;;;;;;1.39;100.00;100477.59;5073790;28;20110;-76
2023/03/06 04:29:41;;;;;;;30.00;27.38;;;;;;;1.29;100.00;100480.28;5073538;28;20090;-76
2023/03/06 04:32:09;;;;;;;36.95;34.13;;;;;;;1.29;100.00;100479.47;5073129;28;20468;-76
2023/03/06 04:34:37;;;;;;;35.92;33.33;;;;;;;1.37;100.00;100475.13;5072995;28;20048;-76
2023/03/06 04:37:04;;;;;;;32.38;29.95;;;;;;;1.32;100.00;100473.94;5073033;28;20041;-76
2023/03/06 04:39:30;;;;;;;32.05;29.27;;;;;;;1.27;100.00;100482.25;5073276;28;20582;-76
2023/03/06 04:41:57;;;;;;;28.65;26.05;;;;;;;1.34;100.00;100487.69;5072845;28;20098;-76
2023/03/06 04:44:24;;;;;;;35.33;32.53;;;;;;;1.17;100.00;100478.88;5073102;28;20117;-76
2023/03/06 04:46:50;;;;;;;31.80;29.10;;;;;;;1.41;100.00;100487.91;5072768;28;20048;-76
2023/03/06 04:49:18;;;;;;;48.03;44.10;;;;;;;1.39;100.00;100480.19;5073296;28;20463;-76
2023/03/06 04:51:45;;;;;;;50.63;46.47;;;;;;;1.49;100.00;100480.13;5072632;28;20098;-76
2023/03/06 04:54:12;;;;;;;41.67;38.25;;;;;;;1.24;100.00;100489.56;5073033;28;20052;-76
2023/03/06 04:56:38;;;;;;;41.00;37.80;;;;;;;1.34;100.00;100491.13;5071788;28;20558;-76
2023/03/06 04:59:05;;;;;;;34.78;32.10;;;;;;;1.46;100.00;100489.09;5052834;28;20114;-76
2023/03/06 05:01:32;;;;;;;26.83;24.40;;;;;;;1.40;100.00;100494.94;5052342;28;20102;-76
2023/03/06 05:03:59;;;;;;;27.17;24.65;;;;;;;1.52;100.00;100500.75;5052449;28;20075;-76
2023/03/06 05:06:27;;;;;;;29.00;26.42;;;;;;;1.38;100.00;100496.88;5052605;28;20053;-76
2023/03/06 05:08:53;;;;;;;27.83;25.38;;;;;;;1.55;100.00;100501.28;5052751;28;20048;-76
2023/03/06 05:11:20;;;;;;;29.30;26.73;;;;;;;1.68;100.00;100507.91;5052605;28;20049;-76
2023/03/06 05:13:47;;;;;;;28.50;26.13;;;;;;;1.74;100.00;100509.91;5052480;28;20516;-76
2023/03/06 05:16:13;;;;;;;27.35;24.73;;;;;;;1.74;100.00;100512.53;5052681;28;20049;-76
2023/03/06 05:18:40;;;;;;;28.13;25.35;;;;;;;1.72;100.00;100519.72;5053084;28;20500;-76
2023/03/06 05:21:07;;;;;;;27.63;24.92;;;;;;;1.80;100.00;100517.16;5052272;28;20052;-76
2023/03/06 05:23:38;;;;;;;28.58;25.98;;;;;;;1.91;100.00;100526.56;5052211;28;20049;-76
2023/03/06 05:26:07;;;;;;;28.20;25.50;;;;;;;2.01;100.00;100520.22;5052767;28;20049;-76
2023/03/06 05:28:34;;;;;;;30.63;27.67;;;;;;;2.04;100.00;100527.78;5052546;28;20052;-76
2023/03/06 05:31:00;;;;;;;28.55;26.23;;;;;;;2.10;100.00;100528.16;5052253;28;20056;-76
2023/03/06 05:33:27;;;;;;;26.67;24.17;;;;;;;2.24;100.00;100527.53;5052095;28;20502;-76
2023/03/06 05:35:54;;;;;;;26.35;23.73;;;;;;;2.11;100.00;100527.16;5052272;28;20103;-76
2023/03/06 05:38:21;;;;;;;26.63;24.42;;;;;;;2.13;100.00;100543.56;5052054;28;20079;-76
2023/03/06 05:40:50;;;;;;;28.02;25.15;;;;;;;2.36;100.00;100549.06;5052069;28;20136;-76
2023/03/06 05:43:16;;;;;;;25.67;23.58;;;;;;;2.44;100.00;100546.50;5052191;28;20049;-76
2023/03/06 05:45:43;;;;;;;25.75;23.75;;;;;;;3.04;100.00;100549.00;5052350;28;20045;-76
2023/03/06 05:48:12;;;;;;;26.15;23.80;;;;;;;3.10;100.00;100553.59;5052230;28;20126;-76
2023/03/06 05:50:40;;;;;;;29.70;26.92;;;;;;;2.71;100.00;100561.19;5051961;28;20498;-76
2023/03/06 05:53:06;;;;;;;30.38;27.75;;;;;;;2.78;100.00;100564.81;5052152;28;20048;-76
2023/03/06 05:55:33;;;;;;;28.55;25.90;;;;;;;3.16;100.00;100563.44;5052045;28;20052;-76
2023/03/06 05:58:01;;;;;;;30.08;27.05;;;;;;;3.37;100.00;100562.19;5052078;28;20053;-76
2023/03/06 06:00:28;;;;;;;26.98;24.92;;;;;;;3.90;100.00;100572.19;5052069;28;20136;-76
2023/03/06 06:02:55;;;;;;;28.65;25.95;;;;;;;3.25;100.00;100577.41;5051934;28;20074;-76
2023/03/06 06:05:21;;;;;;;27.75;25.13;;;;;;;3.13;100.00;100576.91;5051992;28;20058;-76
2023/03/06 06:07:48;;;;;;;30.08;27.90;;;;;;;4.41;100.00;100579.00;5052040;28;20118;-76
2023/03/06 06:10:16;;;;;;;30.35;27.80;;;;;;;3.71;100.00;100585.66;5051816;28;20098;-76
2023/03/06 06:12:43;;;;;;;25.30;22.88;;;;;;;3.50;100.00;100575.63;5051683;28;20517;-76
2023/03/06 06:15:11;;;;;;;26.60;23.92;;;;;;;3.44;100.00;100587.59;5052028;28;20484;-76
2023/03/06 06:17:38;;;;;;;25.95;23.65;;;;;;;3.97;100.00;100595.19;5052000;28;20403;-76
2023/03/06 06:20:06;;;;;;;27.13;24.35;;;;;;;3.46;100.00;100581.38;5051625;28;20045;-76
2023/03/06 06:22:36;;;;;;;24.75;22.30;;;;;;;3.70;100.00;100609.47;5051858;28;20106;-76
2023/03/06 06:25:02;;;;;;;24.50;22.45;;;;;;;5.26;100.00;100606.25;5052025;28;20052;-76
2023/03/06 06:27:29;;;;;;;26.70;24.45;;;;;;;4.92;100.00;100616.31;5051527;28;20045;-76
2023/03/06 06:29:56;;;;;;;29.05;26.45;;;;;;;4.31;100.00;100618.63;5052088;28;20049;-76
2023/03/06 06:32:24;;;;;;;26.33;23.73;;;;;;;4.01;100.00;100628.84;5051573;28;20045;-76
2023/03/06 06:34:50;;;;;;;28.63;25.88;;;;;;;4.24;100.00;100634.25;5051773;28;20052;-76
2023/03/06 06:37:17;;;;;;;28.92;26.27;;;;;;;3.72;100.00;100644.28;5051767;28;20052;-76
2023/03/06 06:39:44;;;;;;;29.70;26.70;;;;;;;3.40;100.00;100646.69;5051452;28;20106;-76
2023/03/06 06:42:11;;;;;;;27.02;24.40;;;;;;;4.58;100.00;100656.88;5051725;28;20103;-76
2023/03/06 06:44:38;;;;;;;27.10;24.85;;;;;;;4.60;100.00;100657.53;5053029;28;20102;-76
2023/03/06 06:47:06;;;;;;;28.40;25.48;;;;;;;4.56;100.00;100659.66;5055038;28;20103;-76
2023/03/06 06:49:34;;;;;;;31.38;28.88;;;;;;;4.60;100.00;100665.44;5055706;28;20045;-78
2023/03/06 06:52:01;;;;;;;22.77;21.17;;;;;;;6.15;100.00;100663.78;5055853;28;20048;-78
2023/03/06 06:54:28;;;;;;;25.00;22.73;;;;;;;3.89;100.00;100680.09;5055696;28;20130;-78
2023/03/06 06:56:54;;;;;;;25.15;22.50;;;;;;;4.46;100.00;100676.63;5055006;28;20107;-78
2023/03/06 06:59:22;;;;;;;28.00;25.55;;;;;;;4.48;100.00;100691.25;5055373;28;20407;-78
2023/03/06 07:01:49;;;;;;;32.03;27.80;;;;;;;4.24;100.00;100686.84;5055120;28;20081;-78
2023/03/06 07:04:16;;;;;;;28.00;25.35;;;;;;;4.35;100.00;100688.28;5054741;28;20061;-78
2023/03/06 07:06:45;;;;;;;31.30;28.05;;;;;;;4.79;100.00;100698.44;5054910;28;20068;-78
2023/03/06 07:09:13;;;;;;;33.03;30.38;;;;;;;5.07;100.00;100693.56;5054854;28;20044;-78
2023/03/06 07:11:40;;;;;;;34.90;31.80;;;;;;;4.66;100.00;100698.13;5054961;28;20053;-78
2023/03/06 07:14:07;;;;;;;29.10;25.98;;;;;;;5.44;100.00;100700.78;5055072;28;20041;-78
2023/03/06 07:16:34;;;;;;;27.58;24.92;;;;;;;5.47;100.00;100699.63;5055306;28;20079;-78
2023/03/06 07:19:01;;;;;;;31.08;28.25;;;;;;;5.50;100.00;100694.84;5055022;28;20052;-78
2023/03/06 07:21:28;;;;;;;29.25;26.92;;;;;;;6.83;100.00;100710.28;5055763;28;20403;-78
2023/03/06 07:23:56;;;;;;;25.42;23.17;;;;;;;6.14;100.00;100713.09;5073488;28;20056;-78
2023/03/06 07:26:23;;;;;;;29.23;26.27;;;;;;;5.36;100.00;100702.69;5075386;28;20053;-78
2023/03/06 07:28:51;;;;;;;34.50;31.73;;;;;;;5.45;100.00;100712.19;5075086;28;20048;-76
2023/03/06 07:31:20;;;;;;;31.55;29.35;;;;;;;6.65;100.00;100712.47;5074950;28;20135;-78
2023/03/06 07:33:46;;;;;;;29.13;26.23;;;;;;;5.30;100.00;100708.63;5075140;28;20050;-78
2023/03/06 07:36:13;;;;;;;30.05;27.05;;;;;;;5.56;100.00;100716.22;5074703;28;20494;-78
2023/03/06 07:38:40;;;;;;;30.52;27.17;;;;;;;6.09;100.00;100714.59;5075035;28;20489;-78
2023/03/06 07:41:12;;;;;;;35.33;31.95;;;;;;;5.65;100.00;100721.28;5075138;28;20049;-78
2023/03/06 07:43:39;;;;;;;30.10;27.13;;;;;;;4.54;100.00;100714.28;5074704;28;20056;-78
2023/03/06 07:46:06;;;;;;;31.52;28.83;;;;;;;4.52;100.00;100718.88;5074422;28;20075;-78
2023/03/06 07:48:33;;;;;;;31.95;28.83;;;;;;;4.72;100.00;100721.97;5074491;28;20045;-78
2023/03/06 07:51:01;;;;;;;34.97;31.35;;;;;;;4.18;100.00;100724.31;5073995;28;20056;-78
2023/03/06 07:53:29;;;;;;;31.60;28.50;;;;;;;5.22;100.00;100733.16;5074109;28;20501;-78
2023/03/06 07:55:56;;;;;;;32.05;28.65;;;;;;;4.38;100.00;100737.94;5073090;28;20477;-78
2023/03/06 07:58:25;;;;;;;31.00;27.67;;;;;;;4.82;100.00;100733.13;5074113;28;20052;-78
2023/03/06 08:00:51;;;;;;;30.02;27.08;;;;;;;5.33;100.00;100742.53;5074177;28;20044;-78
2023/03/06 08:03:18;;;;;;;29.45;26.52;;;;;;;5.79;100.00;100748.72;5073952;28;20094;-78
2023/03/06 08:05:45;;;;;;;29.65;25.45;;;;;;;6.18;100.00;100739.94;5074337;28;20113;-78
2023/03/06 08:08:12;;;;;;;30.80;27.52;;;;;;;5.88;100.00;100749.50;5074129;28;20040;-78
2023/03/06 08:10:39;;;;;;;30.13;27.08;;;;;;;6.30;100.00;100748.25;5073835;28;20510;-78
2023/03/06 08:13:06;;;;;;;29.08;26.17;;;;;;;5.70;100.00;100755.84;5073930;28;20044;-78
2023/03/06 08:15:34;;;;;;;32.47;28.95;;;;;;;6.17;100.00;100756.72;5074171;28;20049;-78
2023/03/06 08:18:01;;;;;;;29.13;25.95;;;;;;;5.97;100.00;100761.66;5074034;28;20121;-78
2023/03/06 08:20:27;;;;;;;27.65;24.75;;;;;;;6.56;100.00;100761.84;5074010;28;20101;-78
2023/03/06 08:22:55;;;;;;;26.35;23.85;;;;;;;5.90;100.00;100758.03;5073727;28;20052;-78
2023/03/06 08:25:23;;;;;;;31.02;27.63;;;;;;;6.03;100.00;100755.69;5073906;28;20475;-78
2023/03/06 08:27:50;;;;;;;29.52;26.52;;;;;;;5.25;100.00;100748.63;5074128;28;20048;-78
2023/03/06 08:30:18;;;;;;;33.72;27.67;;;;;;;5.96;100.00;100757.34;5073549;28;20053;-78
2023/03/06 08:32:46;;;;;;;27.77;24.98;;;;;;;6.80;100.00;100755.53;5073820;28;20048;-78
2023/03/06 08:35:13;;;;;;;30.88;27.83;;;;;;;5.95;100.00;100748.63;5074396;28;20112;-78
2023/03/06 08:37:40;;;;;;;32.90;25.63;;;;;;;7.02;100.00;100761.75;5074118;28;20102;-78
2023/03/06 08:40:08;;;;;;;28.63;25.60;;;;;;;6.81;100.00;100761.66;5073914;28;20044;-78
2023/03/06 08:42:34;;;;;;;30.63;27.20;;;;;;;6.38;100.00;100756.06;5073619;28;20471;-78
2023/03/06 08:45:01;;;;;;;31.55;28.23;;;;;;;5.97;100.00;100759.84;5073305;28;20056;-78
2023/03/06 08:47:28;;;;;;;28.95;25.88;;;;;;;6.34;100.00;100760.88;5073219;28;20622;-78
2023/03/06 08:49:57;;;;;;;30.08;27.02;;;;;;;6.08;100.00;100763.91;5073025;28;20056;-78
2023/03/06 08:52:24;;;;;;;30.80;27.67;;;;;;;6.31;100.00;100766.50;5073605;28;20052;-78
2023/03/06 08:54:50;;;;;;;29.05;26.27;;;;;;;7.38;100.00;100763.66;5073486;28;20406;-78
2023/03/06 08:57:17;;;;;;;29.42;25.75;;;;;;;9.01;100.00;100762.19;5073374;28;20041;-78
2023/03/06 08:59:44;;;;;;;28.55;25.67;;;;;;;8.48;100.00;100767.94;5074589;28;20097;-78
2023/03/06 09:02:13;;;;;;;29.02;23.67;;;;;;;9.75;100.00;100766.84;5075181;28;20048;-78
2023/03/06 09:04:40;;;;;;;29.73;26.63;;;;;;;7.54;100.00;100774.03;5074158;28;20052;-78
2023/03/06 09:07:08;;;;;;;29.65;26.35;;;;;;;8.48;100.00;100775.88;5073708;28;20052;-78
2023/03/06 09:09:35;;;;;;;31.42;27.98;;;;;;;8.69;100.00;100767.91;5073969;28;20056;-78
2023/03/06 09:12:02;;;;;;;27.77;24.90;;;;;;;8.73;100.00;100757.72;5074657;28;20045;-78
2023/03/06 09:14:28;;;;;;;32.83;29.05;;;;;;;9.03;100.00;100768.94;5073787;28;20040;-78
2023/03/06 09:16:55;;;;;;;29.98;26.90;;;;;;;8.00;100.00;100780.88;5073492;28;20048;-78
2023/03/06 09:19:22;;;;;;;31.52;26.95;;;;;;;9.00;100.00;100771.97;5074477;28;20506;-78
2023/03/06 09:21:49;;;;;;;30.25;27.02;;;;;;;8.86;100.00;100771.06;5073749;28;20044;-78
2023/03/06 09:24:17;;;;;;;32.90;28.02;;;;;;;8.76;100.00;100765.28;5073828;28;20040;-78
2023/03/06 09:26:43;;;;;;;32.08;28.70;;;;;;;9.14;100.00;100772.88;5074420;28;20475;-78
2023/03/06 09:29:11;;;;;;;32.55;26.90;;;;;;;9.12;100.00;100775.72;5074081;28;20102;-78
2023/03/06 09:31:38;;;;;;;30.63;27.42;;;;;;;8.99;100.00;100770.34;5074020;28;20044;-78
2023/03/06 09:34:04;;;;;;;33.00;29.55;;;;;;;9.34;100.00;100775.63;5073908;28;20106;-78
2023/03/06 09:36:31;;;;;;;34.97;29.92;;;;;;;8.27;100.00;100768.72;5073918;28;20049;-78
2023/03/06 09:38:58;;;;;;;34.45;30.83;;;;;;;10.67;100.00;100766.19;5073350;28;20058;-78
2023/03/06 09:41:31;;;;;;;33.08;29.58;;;;;;;9.61;100.00;100766.78;5072455;28;20106;-78
2023/03/06 09:44:03;;;;;;;29.65;26.55;;;;;;;10.24;100.00;100763.88;5052488;28;20045;-78
2023/03/06 09:46:44;;;;;;;34.45;30.17;;;;;;;10.73;100.00;100772.50;5054838;28;20091;-78
2023/03/06 09:49:38;;;;;;;32.72;27.73;;;;;;;10.05;100.00;100772.66;5054857;28;20583;-79
2023/03/06 09:52:17;;;;;;;32.08;28.90;;;;;;;9.72;100.00;100768.06;5054728;28;20049;-78
2023/03/06 09:54:46;;;;;;;37.38;33.38;;;;;;;9.64;100.00;100770.88;5054117;28;20057;-78
2023/03/06 09:57:20;;;;;;;35.33;30.83;;;;;;;9.17;100.00;100767.19;5053587;28;20049;-78
2023/03/06 09:59:50;;;;;;;36.00;31.75;;;;;;;11.89;95.51;100761.97;5054483;28;20111;-78
2023/03/06 10:02:22;;;;;;;37.55;33.67;;;;;;;9.90;95.96;100754.25;5055128;28;20045;-78
2023/03/06 10:04:53;;;;;;;37.13;31.55;;;;;;;12.43;97.79;100749.09;5055070;28;20045;-78
2023/03/06 10:07:22;;;;;;;32.40;29.48;;;;;;;9.54;88.32;100749.22;5056296;28;20049;-78
2023/03/06 10:09:53;;;;;;;35.45;32.15;;;;;;;10.08;100.00;100743.06;5054795;28;20057;-78
2023/03/06 10:12:24;;;;;;;34.72;31.38;;;;;;;10.50;100.00;100747.19;5054790;28;20068;-78
2023/03/06 10:15:02;;;;;;;32.97;29.63;;;;;;;9.00;100.00;100744.66;5054326;28;20056;-78
2023/03/06 10:17:35;;;;;;;36.92;33.03;;;;;;;10.97;98.71;100736.50;5053479;28;20522;-78
2023/03/06 10:20:14;;;;;;;36.38;32.53;;;;;;;9.77;87.76;100735.63;5056858;28;20048;-79
2023/03/06 10:22:45;;;;;;;34.42;30.75;;;;;;;10.09;100.00;100736.72;5057889;28;20118;-78
2023/03/06 10:25:22;;;;;;;37.47;30.30;;;;;;;11.03;99.83;100726.91;5058749;28;20053;-78
2023/03/06 10:27:57;;;;;;;34.80;31.00;;;;;;;11.91;95.72;100735.13;5058675;28;20563;-78
2023/03/06 10:30:38;;;;;;;33.15;29.77;;;;;;;12.11;84.04;100719.84;5060249;28;20041;-79
2023/03/06 10:33:09;;;;;;;33.08;29.70;;;;;;;13.21;78.40;100721.91;5059486;28;20045;-78
2023/03/06 10:35:46;;;;;;;38.08;34.30;;;;;;;10.72;73.29;100715.91;5059565;28;20052;-78
2023/03/06 10:38:19;;;;;;;36.45;32.75;;;;;;;10.81;89.64;100715.72;5057947;28;20049;-78
2023/03/06 10:41:06;;;;;;;38.10;34.08;;;;;;;12.04;82.75;100716.44;5058217;28;20056;-78
2023/03/06 10:43:35;;;;;;;39.00;35.30;;;;;;;13.21;82.87;100707.75;5056237;28;20041;-78
2023/03/06 10:46:02;;;;;;;38.85;33.70;;;;;;;10.48;81.64;100704.09;5058036;28;20064;-78
2023/03/06 10:48:34;;;;;;;39.97;34.65;;;;;;;11.82;85.21;100702.59;5058280;28;20103;-78
2023/03/06 10:51:15;;;;;;;36.58;32.85;;;;;;;11.13;81.15;100701.50;5059159;28;20494;-78
2023/03/06 10:53:50;;;;;;;37.92;33.75;;;;;;;11.87;84.15;100694.03;5059176;28;20049;-78
2023/03/06 10:56:27;;;;;;;38.47;34.25;;;;;;;11.26;81.33;100695.34;5058420;28;20497;-78
2023/03/06 10:59:08;;;;;;;39.88;35.63;;;;;;;11.29;75.22;100686.13;5058428;28;20457;-78
2023/03/06 11:01:35;;;;;;;38.47;34.10;;;;;;;12.24;74.67;100684.31;5057707;28;20517;-78
2023/03/06 11:04:16;;;;;;;36.55;32.55;;;;;;;13.49;78.74;100685.88;5058257;28;20052;-79
2023/03/06 11:06:43;;;;;;;36.60;32.67;;;;;;;12.24;78.08;100665.69;5058009;28;20615;-79
2023/03/06 11:09:22;;;;;;;35.83;32.17;;;;;;;12.41;78.23;100670.47;5058080;28;20052;-78
2023/03/06 11:11:50;;;;;;;39.22;34.80;;;;;;;10.64;85.00;100676.28;5057970;28;20077;-78
2023/03/06 11:14:21;;;;;;;38.55;34.60;;;;;;;11.18;87.92;100671.63;5057780;28;20048;-78
2023/03/06 11:16:52;;;;;;;37.20;33.40;;;;;;;12.01;83.81;100668.09;5057207;28;20579;-78
2023/03/06 11:19:21;;;;;;;35.33;31.63;;;;;;;13.30;72.78;100663.75;5058846;28;20052;-78
2023/03/06 11:22:00;;;;;;;35.75;31.98;;;;;;;12.66;73.99;100665.91;5057572;28;20044;-78